Time;durP1;ratioP1;P1;durP2;ratioP2;P2;SDS_P1;SDS_P2;PMS_P1;PMS_P2;Temp;Humidity;BMP_temperature;BMP_pressure;BME280_temperature;BME280_humidity;BME280_pressure;Samples;Min_cycle;Max_cycle;Signal;HPM_P1;HPM_P2
2022/06/07 00:01:28;;;;;;;3.03;2.30;;;18.10;82.50;;;;;;5098375;28;20465;-45
2022/06/07 00:03:54;;;;;;;2.50;2.00;;;18.10;83.10;;;;;;5098996;28;20496;-45
2022/06/07 00:06:20;;;;;;;3.47;2.00;;;18.00;83.40;;;;;;5098259;28;20273;-45
2022/06/07 00:08:46;;;;;;;4.23;2.30;;;17.90;84.10;;;;;;5098847;28;20211;-45
2022/06/07 00:11:12;;;;;;;3.20;2.10;;;18.00;84.90;;;;;;5099165;28;20436;-46
2022/06/07 00:13:38;;;;;;;2.10;1.90;;;18.00;83.90;;;;;;5098422;28;20850;-45
2022/06/07 00:16:04;;;;;;;3.03;2.30;;;18.00;84.30;;;;;;5098122;28;20195;-44
2022/06/07 00:18:31;;;;;;;2.20;1.93;;;18.00;84.30;;;;;;5098429;28;20427;-45
2022/06/07 00:20:57;;;;;;;2.53;2.03;;;18.00;84.60;;;;;;5098637;28;20170;-45
2022/06/07 00:23:22;;;;;;;3.73;2.10;;;18.00;84.80;;;;;;5098696;28;20411;-45
2022/06/07 00:25:51;;;;;;;2.40;2.20;;;18.00;85.00;;;;;;5098022;28;20209;-45
2022/06/07 00:28:17;;;;;;;7.00;2.30;;;17.90;85.20;;;;;;5098138;28;20315;-45
2022/06/07 00:30:44;;;;;;;2.80;2.47;;;17.80;85.60;;;;;;5098803;28;20415;-45
2022/06/07 00:33:10;;;;;;;2.53;2.20;;;17.90;85.90;;;;;;5099129;28;20419;-45
2022/06/07 00:35:37;;;;;;;2.40;2.17;;;17.80;86.50;;;;;;5098407;28;20465;-45
2022/06/07 00:38:05;;;;;;;2.53;2.27;;;17.70;87.30;;;;;;5098147;28;20461;-45
2022/06/07 00:40:31;;;;;;;2.80;2.43;;;17.70;87.80;;;;;;5099136;28;20450;-44
2022/06/07 00:42:57;;;;;;;2.50;2.10;;;17.60;88.60;;;;;;5098482;28;20879;-44
2022/06/07 00:45:23;;;;;;;2.83;2.27;;;17.60;89.30;;;;;;5098012;28;20425;-45
2022/06/07 00:47:49;;;;;;;3.37;2.73;;;17.60;89.40;;;;;;5098492;28;20543;-44
2022/06/07 00:50:45;;;;;;;2.27;2.07;;;17.50;90.10;;;;;;5098834;28;20419;-44
2022/06/07 00:53:30;;;;;;;3.40;2.63;;;17.50;90.60;;;;;;5097882;28;20549;-44
2022/06/07 00:55:56;;;;;;;2.70;2.50;;;17.40;90.80;;;;;;5098386;28;20428;-45
2022/06/07 00:58:25;;;;;;;3.50;2.63;;;17.40;91.30;;;;;;5097922;28;20851;-44
2022/06/07 01:00:54;;;;;;;2.37;1.93;;;17.40;91.90;;;;;;5098386;28;20161;-45
2022/06/07 01:03:21;;;;;;;5.00;2.40;;;17.30;92.30;;;;;;5098374;28;20424;-45
2022/06/07 01:05:48;;;;;;;3.00;2.40;;;17.20;93.10;;;;;;5097902;28;20839;-44
2022/06/07 01:10:58;;;;;;;2.63;2.40;;;17.00;94.00;;;;;;5097329;28;20770;-44
2022/06/07 01:13:28;;;;;;;3.10;2.43;;;17.00;94.30;;;;;;5097889;28;20424;-44
2022/06/07 01:19:19;;;;;;;3.20;2.30;;;17.20;94.70;;;;;;5025776;28;20497;-44
2022/06/07 01:21:46;;;;;;;2.70;2.03;;;17.20;94.60;;;;;;5097620;28;20936;-44
2022/06/07 01:24:15;;;;;;;2.40;2.20;;;17.10;94.90;;;;;;5098104;28;20182;-44
2022/06/07 01:26:40;;;;;;;2.40;2.20;;;17.20;95.10;;;;;;5097709;28;20513;-44
2022/06/07 01:29:06;;;;;;;2.27;2.00;;;17.30;94.90;;;;;;5096955;28;20627;-44
2022/06/07 01:31:33;;;;;;;5.00;2.20;;;17.30;94.80;;;;;;5097982;28;20189;-45
2022/06/07 01:33:59;;;;;;;2.43;2.23;;;17.40;94.90;;;;;;5097749;28;20466;-43
2022/06/07 01:36:24;;;;;;;2.90;2.60;;;17.40;94.80;;;;;;5097551;28;20432;-45
2022/06/07 01:41:53;;;;;;;2.27;2.07;;;17.50;94.80;;;;;;5097896;28;20436;-44
2022/06/07 01:41:55;;;;;;;3.07;2.40;;;17.50;94.80;;;;;;5096664;28;20199;-44
2022/06/07 01:44:27;;;;;;;2.33;2.13;;;17.50;94.80;;;;;;5097169;28;20421;-44
2022/06/07 01:46:55;;;;;;;2.73;2.27;;;17.50;94.70;;;;;;5097674;28;20424;-44
2022/06/07 01:49:21;;;;;;;2.60;2.40;;;17.50;94.70;;;;;;5098150;28;20498;-44
2022/06/07 01:51:46;;;;;;;2.80;1.80;;;17.60;94.70;;;;;;5096372;28;20513;-45
2022/06/07 01:54:13;;;;;;;3.03;2.13;;;17.50;93.80;;;;;;5097396;28;20908;-44
2022/06/07 01:56:39;;;;;;;2.87;2.00;;;17.50;93.50;;;;;;5097461;28;20175;-45
2022/06/07 01:59:06;;;;;;;3.03;2.50;;;17.40;93.80;;;;;;5096565;28;20685;-44
2022/06/07 02:01:32;;;;;;;1.70;1.53;;;17.30;93.80;;;;;;5097356;28;20424;-44
2022/06/07 02:03:58;;;;;;;1.97;1.73;;;17.30;94.00;;;;;;5097464;28;20434;-44
2022/06/07 02:06:24;;;;;;;3.93;1.93;;;17.20;94.40;;;;;;5096597;28;20747;-44
2022/06/07 02:08:50;;;;;;;2.87;2.00;;;17.20;94.70;;;;;;5096202;28;20215;-44
2022/06/07 02:11:21;;;;;;;2.30;1.97;;;17.20;94.60;;;;;;5096340;28;20411;-44
2022/06/07 02:13:47;;;;;;;2.10;1.90;;;17.20;94.50;;;;;;5096521;28;20286;-44
2022/06/07 02:16:14;;;;;;;4.10;1.63;;;17.30;94.20;;;;;;5096408;28;20426;-45
2022/06/07 02:18:40;;;;;;;1.87;1.67;;;17.30;94.10;;;;;;5096714;28;20459;-45
2022/06/07 02:21:07;;;;;;;1.83;1.20;;;17.30;94.20;;;;;;5097022;28;20415;-44
2022/06/07 02:23:33;;;;;;;2.30;1.40;;;17.30;93.90;;;;;;5096768;28;20774;-44
2022/06/07 02:26:21;;;;;;;4.83;1.80;;;17.30;93.70;;;;;;5096909;28;20700;-44
2022/06/07 02:29:00;;;;;;;2.17;1.50;;;17.30;93.80;;;;;;5083761;28;20518;-44
2022/06/07 02:31:27;;;;;;;2.40;1.50;;;17.30;94.00;;;;;;5096923;28;20431;-44
2022/06/07 02:33:53;;;;;;;3.00;1.87;;;17.30;93.90;;;;;;5096702;28;20464;-44
2022/06/07 02:36:19;;;;;;;1.90;1.33;;;17.30;93.50;;;;;;5096859;28;20420;-44
2022/06/07 02:38:45;;;;;;;2.93;1.60;;;17.30;93.60;;;;;;5096200;28;20577;-44
2022/06/07 02:41:15;;;;;;;2.47;1.50;;;17.30;93.30;;;;;;5096664;28;20190;-44
2022/06/07 02:43:40;;;;;;;1.30;1.20;;;17.30;93.40;;;;;;5097497;28;20415;-44
2022/06/07 02:46:06;;;;;;;1.80;1.33;;;17.40;93.30;;;;;;5097042;28;20836;-44
2022/06/07 02:48:32;;;;;;;1.50;1.30;;;17.40;93.20;;;;;;5096099;28;20424;-44
2022/06/07 02:50:57;;;;;;;2.00;1.50;;;17.40;93.10;;;;;;5096299;28;20185;-44
2022/06/07 02:53:23;;;;;;;2.53;1.40;;;17.40;92.90;;;;;;5097361;28;20194;-44
2022/06/07 02:55:49;;;;;;;1.87;1.40;;;17.40;92.40;;;;;;5099869;28;20205;-44
2022/06/07 02:58:15;;;;;;;2.40;1.50;;;17.40;92.30;;;;;;5100765;28;20715;-44
2022/06/07 03:00:40;;;;;;;2.87;2.07;;;17.30;92.50;;;;;;5098726;28;20579;-44
2022/06/07 03:03:06;;;;;;;2.03;1.83;;;17.30;93.00;;;;;;5097803;28;20216;-44
2022/06/07 03:05:32;;;;;;;2.83;1.90;;;17.20;93.50;;;;;;5096629;28;20173;-44
2022/06/07 03:07:57;;;;;;;2.03;1.83;;;17.20;93.60;;;;;;5096840;28;20434;-45
2022/06/07 03:10:23;;;;;;;2.47;1.93;;;17.10;93.60;;;;;;5096524;28;20194;-44
2022/06/07 03:12:49;;;;;;;3.73;1.27;;;17.00;93.70;;;;;;5095978;28;20225;-45
2022/06/07 03:15:14;;;;;;;2.03;1.67;;;17.00;93.60;;;;;;5096264;28;20329;-44
2022/06/07 03:17:42;;;;;;;1.80;1.30;;;17.00;93.30;;;;;;5095692;28;20474;-44
2022/06/07 03:20:09;;;;;;;2.03;1.50;;;16.90;93.40;;;;;;5097725;28;20276;-44
2022/06/07 03:22:35;;;;;;;1.70;1.40;;;16.90;93.60;;;;;;5097692;28;20467;-44
2022/06/07 03:25:06;;;;;;;4.63;2.00;;;16.90;93.70;;;;;;5097760;28;20419;-45
2022/06/07 03:27:35;;;;;;;2.10;1.60;;;16.90;93.00;;;;;;5097298;28;20426;-44
2022/06/07 03:30:06;;;;;;;2.37;1.80;;;17.00;93.50;;;;;;5097562;28;20447;-44
2022/06/07 03:32:33;;;;;;;1.80;1.20;;;17.00;93.80;;;;;;5099141;28;20756;-44
2022/06/07 03:34:59;;;;;;;2.17;1.20;;;17.00;93.70;;;;;;5098449;28;20468;-44
2022/06/07 03:37:24;;;;;;;2.17;1.40;;;17.10;93.60;;;;;;5098127;28;20826;-45
2022/06/07 03:39:51;;;;;;;1.63;1.37;;;17.20;93.70;;;;;;5097933;28;20650;-44
2022/06/07 03:42:17;;;;;;;2.87;1.53;;;17.20;92.90;;;;;;5098013;28;20204;-44
2022/06/07 03:44:48;;;;;;;1.77;1.40;;;17.20;92.70;;;;;;5097626;28;20506;-44
2022/06/07 03:47:17;;;;;;;1.97;1.40;;;17.20;92.30;;;;;;5098273;28;20439;-44
2022/06/07 03:49:43;;;;;;;2.20;1.53;;;17.20;92.40;;;;;;5098475;28;20415;-45
2022/06/07 03:52:09;;;;;;;1.90;1.67;;;17.10;92.50;;;;;;5097402;28;20865;-44
2022/06/07 03:54:34;;;;;;;1.87;1.33;;;17.00;92.50;;;;;;5097642;28;20235;-44
2022/06/07 03:57:00;;;;;;;3.93;1.47;;;16.90;92.50;;;;;;5096663;28;20821;-44
2022/06/07 03:59:27;;;;;;;1.50;1.40;;;16.80;93.00;;;;;;5097314;28;20299;-45
2022/06/07 04:01:53;;;;;;;3.57;1.40;;;16.70;93.40;;;;;;5097448;28;20700;-44
2022/06/07 04:04:19;;;;;;;3.47;1.90;;;16.70;93.90;;;;;;5096910;28;20845;-44
2022/06/07 04:08:10;;;;;;;3.53;1.67;;;16.60;94.00;;;;;;5097226;28;20537;-44
2022/06/07 04:09:32;;;;;;;1.80;1.60;;;16.60;94.20;;;;;;5097209;28;20421;-45
2022/06/07 04:11:57;;;;;;;3.40;1.80;;;16.50;94.20;;;;;;5097880;28;20712;-44
2022/06/07 04:14:23;;;;;;;1.90;1.50;;;16.40;93.90;;;;;;5097491;28;20565;-44
2022/06/07 04:16:48;;;;;;;2.53;1.87;;;16.40;93.80;;;;;;5096434;28;20177;-44
2022/06/07 04:19:14;;;;;;;1.90;1.57;;;16.30;94.10;;;;;;5097753;28;20177;-44
2022/06/07 04:21:40;;;;;;;2.07;1.30;;;16.40;94.60;;;;;;5098026;28;20535;-44
2022/06/07 04:24:06;;;;;;;1.90;1.70;;;16.40;94.80;;;;;;5096451;28;20600;-44
2022/06/07 04:26:32;;;;;;;1.97;1.70;;;16.50;94.70;;;;;;5096355;28;20306;-44
2022/06/07 04:28:58;;;;;;;2.37;1.50;;;16.60;93.40;;;;;;5096915;28;20316;-44
2022/06/07 04:31:25;;;;;;;2.37;1.40;;;16.70;93.60;;;;;;5097399;28;20496;-44
2022/06/07 04:33:54;;;;;;;1.77;1.20;;;16.80;93.40;;;;;;5096831;28;20786;-44
2022/06/07 04:36:21;;;;;;;1.47;1.33;;;16.80;93.40;;;;;;5096004;28;20429;-44
2022/06/07 04:38:49;;;;;;;1.60;1.13;;;16.80;93.40;;;;;;5096524;28;20443;-44
2022/06/07 04:41:19;;;;;;;3.33;1.70;;;16.80;93.80;;;;;;5096956;28;20485;-44
2022/06/07 04:43:46;;;;;;;1.87;1.40;;;16.90;93.60;;;;;;5096702;28;20835;-44
2022/06/07 04:46:16;;;;;;;3.00;1.50;;;16.90;93.90;;;;;;5096628;28;20447;-44
2022/06/07 04:48:43;;;;;;;3.63;1.80;;;16.90;93.90;;;;;;5095001;28;20436;-44
2022/06/07 04:51:11;;;;;;;2.13;1.73;;;17.00;93.80;;;;;;5094612;28;20875;-44
2022/06/07 04:53:37;;;;;;;1.50;1.40;;;17.00;93.80;;;;;;5096472;28;21099;-44
2022/06/07 04:56:18;;;;;;;2.30;1.43;;;17.10;94.00;;;;;;5096152;28;20428;-44
2022/06/07 04:58:44;;;;;;;2.13;1.70;;;17.00;94.10;;;;;;5097345;28;20204;-44
2022/06/07 05:01:15;;;;;;;2.70;1.80;;;17.10;94.30;;;;;;5095677;28;20704;-44
2022/06/07 05:03:41;;;;;;;2.40;2.20;;;17.00;94.30;;;;;;5097460;28;20445;-44
2022/06/07 05:06:16;;;;;;;3.60;2.00;;;17.10;94.20;;;;;;5098603;28;20509;-44
2022/06/07 05:08:41;;;;;;;3.20;1.30;;;17.00;94.20;;;;;;5097999;28;20418;-47
2022/06/07 05:11:08;;;;;;;3.67;1.50;;;16.90;94.40;;;;;;5097493;28;20751;-46
2022/06/07 05:13:33;;;;;;;3.47;2.03;;;17.10;94.50;;;;;;5097560;28;20586;-46
2022/06/07 05:15:59;;;;;;;2.83;1.90;;;17.30;94.00;;;;;;5095749;28;20573;-45
2022/06/07 05:18:25;;;;;;;3.60;1.70;;;17.50;93.60;;;;;;5093946;28;20189;-46
2022/06/07 05:20:50;;;;;;;2.50;2.07;;;17.60;93.50;;;;;;5096523;28;20807;-47
2022/06/07 05:23:16;;;;;;;3.57;1.80;;;17.80;93.40;;;;;;5096863;28;20192;-46
2022/06/07 05:25:52;;;;;;;4.67;1.70;;;17.90;93.40;;;;;;5095895;28;20184;-47
2022/06/07 05:28:18;;;;;;;2.93;1.90;;;17.90;93.40;;;;;;5096835;28;20301;-46
2022/06/07 05:30:45;;;;;;;2.87;2.27;;;18.00;93.40;;;;;;5096295;28;20506;-45
2022/06/07 05:33:10;;;;;;;3.43;2.03;;;18.20;93.20;;;;;;5095903;28;20185;-45
2022/06/07 05:35:36;;;;;;;2.23;2.03;;;18.30;93.40;;;;;;5095988;28;21044;-45
2022/06/07 05:38:01;;;;;;;5.03;3.27;;;18.30;93.40;;;;;;5095258;28;20173;-46
2022/06/07 05:40:27;;;;;;;2.50;2.30;;;18.40;93.50;;;;;;5094506;28;20181;-45
2022/06/07 05:42:52;;;;;;;2.73;2.33;;;18.50;93.50;;;;;;5095262;28;20169;-45
2022/06/07 05:45:18;;;;;;;2.00;1.83;;;18.60;93.10;;;;;;5095182;28;20408;-45
2022/06/07 05:47:44;;;;;;;2.40;2.20;;;18.80;92.80;;;;;;5093998;28;20703;-45
2022/06/07 05:50:09;;;;;;;2.20;2.00;;;18.90;92.50;;;;;;5094561;28;20189;-46
2022/06/07 05:52:40;;;;;;;2.10;1.90;;;19.00;92.40;;;;;;5094004;28;20176;-47
2022/06/07 05:55:07;;;;;;;2.13;1.77;;;19.20;92.10;;;;;;5093370;28;20507;-47
2022/06/07 05:57:34;;;;;;;2.53;2.33;;;19.20;91.70;;;;;;5094194;28;20429;-45
2022/06/07 06:00:00;;;;;;;2.80;2.10;;;19.30;91.50;;;;;;5093116;28;20446;-46
2022/06/07 06:02:25;;;;;;;5.33;2.00;;;19.20;91.30;;;;;;5086485;28;20528;-46
2022/06/07 06:04:51;;;;;;;1.83;1.70;;;19.20;91.50;;;;;;5087724;28;20983;-47
2022/06/07 06:07:18;;;;;;;4.43;2.20;;;19.30;91.90;;;;;;5092875;28;20184;-46
2022/06/07 06:12:29;;;;;;;2.70;2.13;;;19.60;91.80;;;;;;5091972;28;20491;-47
2022/06/07 06:14:55;;;;;;;3.73;2.37;;;19.60;91.70;;;;;;5088341;28;20487;-47
2022/06/07 06:17:21;;;;;;;3.73;2.00;;;19.70;91.40;;;;;;5073593;28;20640;-45
2022/06/07 06:19:46;;;;;;;2.60;1.77;;;19.80;91.10;;;;;;5072737;28;20472;-47
2022/06/07 06:22:13;;;;;;;2.70;2.10;;;20.00;90.70;;;;;;5072044;28;20181;-47
2022/06/07 06:24:39;;;;;;;3.47;1.93;;;20.20;90.80;;;;;;5073538;28;20548;-45
2022/06/07 06:27:05;;;;;;;3.73;2.03;;;20.30;90.30;;;;;;5071417;28;20467;-46
2022/06/07 06:29:31;;;;;;;2.73;2.00;;;20.60;90.10;;;;;;5074205;28;20915;-46
2022/06/07 06:31:56;;;;;;;2.00;1.80;;;20.90;90.00;;;;;;5086012;28;20484;-46
2022/06/07 06:34:23;;;;;;;4.03;2.20;;;21.10;88.40;;;;;;5098363;28;20627;-48
2022/06/07 06:36:49;;;;;;;2.80;2.40;;;21.10;88.20;;;;;;5099724;28;20635;-46
2022/06/07 06:39:15;;;;;;;2.20;1.83;;;21.00;87.20;;;;;;5098393;28;20431;-45
2022/06/07 06:41:43;;;;;;;2.23;2.07;;;21.00;86.90;;;;;;5097254;28;20240;-48
2022/06/07 06:44:10;;;;;;;2.30;2.10;;;21.00;87.00;;;;;;5098487;28;20502;-46
2022/06/07 06:46:40;;;;;;;4.00;1.93;;;21.10;86.80;;;;;;5098287;28;20872;-48
2022/06/07 06:49:07;;;;;;;2.63;2.20;;;21.30;86.10;;;;;;5098350;28;20446;-45
2022/06/07 06:51:33;;;;;;;4.43;1.83;;;21.50;84.80;;;;;;5098270;28;20431;-46
2022/06/07 06:54:00;;;;;;;2.47;2.13;;;21.30;85.10;;;;;;5099271;28;20435;-45
2022/06/07 06:56:28;;;;;;;2.63;2.10;;;21.50;84.70;;;;;;5090918;28;20863;-48
2022/06/07 06:58:53;;;;;;;2.23;1.90;;;21.60;84.90;;;;;;5100105;28;20836;-45
2022/06/07 07:01:26;;;;;;;2.30;2.10;;;21.70;84.00;;;;;;5098926;28;20439;-44
2022/06/07 07:03:53;;;;;;;3.40;1.93;;;21.50;83.00;;;;;;5078220;28;20184;-46
2022/06/07 07:06:19;;;;;;;1.87;1.50;;;21.60;83.80;;;;;;5080695;28;20453;-47
2022/06/07 07:08:45;;;;;;;3.20;2.00;;;21.80;83.50;;;;;;5099332;28;20424;-45
2022/06/07 07:11:28;;;;;;;2.03;1.83;;;21.70;81.60;;;;;;5098021;28;20431;-46
2022/06/07 07:13:55;;;;;;;1.90;1.60;;;21.70;80.60;;;;;;5097676;28;20418;-47
2022/06/07 07:16:23;;;;;;;2.50;1.83;;;21.80;80.20;;;;;;5095219;28;20428;-45
2022/06/07 07:18:49;;;;;;;2.80;1.73;;;21.90;79.60;;;;;;5097011;28;20431;-49
2022/06/07 07:21:27;;;;;;;3.10;1.90;;;21.80;79.90;;;;;;5091000;28;20477;-45
2022/06/07 07:23:53;;;;;;;2.17;1.70;;;22.00;79.80;;;;;;5097277;28;20432;-48
2022/06/07 07:26:24;;;;;;;2.13;1.60;;;22.50;79.30;;;;;;5078048;28;20494;-47
2022/06/07 07:28:50;;;;;;;3.20;1.50;;;22.90;75.50;;;;;;5076812;28;20474;-45
2022/06/07 07:31:19;;;;;;;3.00;1.70;;;23.20;74.30;;;;;;5078934;28;20926;-47
2022/06/07 07:33:45;;;;;;;1.80;1.50;;;23.40;74.50;;;;;;5097423;28;20687;-46
2022/06/07 07:36:10;;;;;;;2.20;1.70;;;23.70;72.10;;;;;;5097455;28;20435;-47
2022/06/07 07:38:37;;;;;;;2.03;1.60;;;23.70;70.70;;;;;;5096418;28;20439;-45
2022/06/07 07:41:04;;;;;;;1.90;1.50;;;23.80;70.30;;;;;;5095888;28;20184;-47
2022/06/07 07:43:30;;;;;;;2.40;1.50;;;23.80;68.00;;;;;;5096674;28;20473;-48
2022/06/07 07:45:56;;;;;;;2.10;1.47;;;23.60;66.80;;;;;;5096942;28;21011;-46
2022/06/07 07:48:23;;;;;;;2.53;1.60;;;23.40;67.80;;;;;;5095942;28;20187;-46
2022/06/07 07:50:50;;;;;;;2.13;1.40;;;23.50;68.20;;;;;;5096136;28;20445;-45
2022/06/07 07:53:18;;;;;;;4.27;1.40;;;23.60;65.70;;;;;;5098178;28;20428;-45
2022/06/07 07:55:46;;;;;;;1.43;1.30;;;23.50;66.20;;;;;;5097014;28;21041;-46
2022/06/07 07:58:12;;;;;;;1.90;1.50;;;23.80;66.80;;;;;;5094492;28;20425;-44
2022/06/07 08:00:45;;;;;;;1.90;1.30;;;24.10;65.30;;;;;;5095293;28;20434;-47
2022/06/07 08:03:11;;;;;;;2.90;1.70;;;24.60;63.30;;;;;;5095983;28;20466;-49
2022/06/07 08:05:37;;;;;;;2.00;1.37;;;24.90;61.30;;;;;;5093838;28;20435;-46
2022/06/07 08:08:03;;;;;;;1.67;1.30;;;24.90;61.30;;;;;;5093508;28;20438;-46
2022/06/07 08:10:29;;;;;;;2.70;1.63;;;25.30;60.40;;;;;;5094225;28;20439;-47
2022/06/07 08:12:56;;;;;;;3.63;1.77;;;25.50;60.00;;;;;;5093610;28;20445;-45
2022/06/07 08:15:23;;;;;;;3.00;1.30;;;25.40;58.90;;;;;;5087968;28;20470;-44
2022/06/07 08:17:49;;;;;;;1.60;1.10;;;25.50;59.20;;;;;;5074293;28;20442;-49
2022/06/07 08:20:15;;;;;;;2.50;1.30;;;25.40;59.30;;;;;;5074537;28;20450;-47
2022/06/07 08:22:41;;;;;;;2.33;1.40;;;25.20;59.40;;;;;;5074701;28;20428;-46
2022/06/07 08:25:10;;;;;;;8.60;1.37;;;24.90;59.30;;;;;;5074841;28;20463;-47
2022/06/07 08:27:36;;;;;;;2.50;1.53;;;24.00;59.00;;;;;;5082196;28;20184;-48
2022/06/07 08:30:04;;;;;;;4.93;1.57;;;23.30;60.80;;;;;;5094506;28;20482;-45
2022/06/07 08:32:30;;;;;;;2.97;1.50;;;23.00;61.70;;;;;;5094749;28;20468;-47
2022/06/07 08:37:40;;;;;;;1.40;1.23;;;22.60;63.80;;;;;;5095411;28;20468;-48
2022/06/07 08:40:33;;;;;;;1.40;1.30;;;22.80;63.90;;;;;;5095849;28;20416;-46
2022/06/07 08:43:00;;;;;;;2.20;1.67;;;23.10;62.20;;;;;;5087706;28;20481;-48
2022/06/07 08:45:30;;;;;;;1.63;1.53;;;23.30;62.00;;;;;;5096409;28;20436;-46
2022/06/07 08:47:56;;;;;;;1.53;1.20;;;23.50;63.20;;;;;;5095638;28;20450;-45
2022/06/07 08:50:25;;;;;;;3.90;1.37;;;23.50;61.60;;;;;;5095275;28;20419;-48
2022/06/07 08:52:55;;;;;;;3.00;1.93;;;23.60;61.40;;;;;;5093731;28;20476;-47
2022/06/07 08:55:26;;;;;;;1.40;1.30;;;23.40;60.90;;;;;;5096123;28;20472;-45
2022/06/07 08:58:05;;;;;;;3.07;1.60;;;23.50;60.80;;;;;;5095232;28;20424;-46
2022/06/07 09:00:32;;;;;;;1.63;1.10;;;23.60;61.30;;;;;;5095456;28;20702;-45
2022/06/07 09:03:34;;;;;;;1.37;1.10;;;23.40;59.40;;;;;;5095697;28;20424;-46
2022/06/07 09:06:01;;;;;;;1.10;0.90;;;23.30;59.10;;;;;;4997148;28;20451;-46
2022/06/07 09:08:53;;;;;;;2.00;1.00;;;23.80;58.60;;;;;;5078718;28;20436;-46
2022/06/07 09:14:21;;;;;;;1.53;1.30;;;25.50;54.80;;;;;;5077781;28;20518;-47
2022/06/07 09:16:47;;;;;;;2.57;1.07;;;26.20;54.10;;;;;;5096695;28;20829;-48
2022/06/07 09:19:18;;;;;;;1.90;1.13;;;26.10;52.90;;;;;;5097250;28;20459;-48
2022/06/07 09:21:45;;;;;;;2.20;1.00;;;25.70;52.40;;;;;;5097493;28;20425;-47
2022/06/07 09:24:28;;;;;;;3.60;1.10;;;25.10;53.20;;;;;;5096709;28;20727;-46
2022/06/07 09:27:04;;;;;;;2.07;1.10;;;24.70;52.50;;;;;;5092884;28;20472;-45
2022/06/07 09:29:35;;;;;;;1.47;1.27;;;24.30;53.50;;;;;;5128893;27;20498;-44
2022/06/07 09:32:01;;;;;;;4.10;1.33;;;24.10;54.50;;;;;;5129152;27;20442;-44
2022/06/07 09:34:30;;;;;;;1.53;1.13;;;23.70;55.00;;;;;;5095980;28;20494;-46
2022/06/07 09:37:03;;;;;;;2.70;1.07;;;23.80;55.10;;;;;;5094910;28;20193;-45
2022/06/07 09:39:37;;;;;;;2.97;1.20;;;23.80;54.70;;;;;;5078028;28;20430;-47
2022/06/07 09:42:12;;;;;;;1.23;0.90;;;23.90;53.40;;;;;;5076875;28;20683;-49
2022/06/07 09:44:40;;;;;;;2.27;1.10;;;23.80;53.50;;;;;;5094842;28;20532;-50
2022/06/07 09:47:19;;;;;;;2.07;1.03;;;23.80;53.80;;;;;;5095338;28;20443;-47
2022/06/07 09:49:51;;;;;;;1.30;1.03;;;23.90;53.70;;;;;;5097042;28;20775;-46
2022/06/07 09:52:21;;;;;;;3.13;1.07;;;24.10;54.40;;;;;;5076804;28;20433;-49
2022/06/07 09:54:48;;;;;;;2.00;0.97;;;24.10;53.60;;;;;;5076319;28;20570;-46
2022/06/07 09:57:22;;;;;;;3.13;1.20;;;24.50;54.00;;;;;;5073757;28;20824;-47
2022/06/07 10:00:04;;;;;;;1.50;1.10;;;25.70;52.10;;;;;;5073585;28;20866;-45
2022/06/07 10:03:08;;;;;;;3.20;1.50;;;27.80;50.70;;;;;;5084887;28;20850;-50
2022/06/07 10:05:43;;;;;;;2.00;1.03;;;28.40;47.80;;;;;;5078475;28;20418;-47
2022/06/07 10:08:42;;;;;;;1.10;0.90;;;27.60;47.30;;;;;;5078255;28;20431;-47
2022/06/07 10:11:30;;;;;;;3.00;1.20;;;26.90;48.50;;;;;;5049737;28;20994;-47
2022/06/07 10:13:58;;;;;;;1.67;1.50;;;25.70;49.50;;;;;;5098217;28;20703;-48
2022/06/07 10:16:40;;;;;;;2.63;1.57;;;24.60;51.60;;;;;;5098232;28;20419;-47
2022/06/07 10:19:47;;;;;;;2.17;1.40;;;24.30;52.60;;;;;;5097494;28;20425;-45
2022/06/07 10:22:46;;;;;;;1.63;1.23;;;24.10;53.30;;;;;;5095562;28;20459;-48
2022/06/07 10:25:12;;;;;;;1.70;1.30;;;23.90;53.20;;;;;;5078562;28;20449;-46
2022/06/07 10:28:02;;;;;;;2.40;1.43;;;23.30;54.60;;;;;;5087843;28;20476;-47
2022/06/07 10:30:52;;;;;;;1.80;1.23;;;23.00;55.50;;;;;;5099276;28;20282;-46
2022/06/07 10:33:39;;;;;;;2.23;1.67;;;23.00;56.70;;;;;;5098166;28;20432;-43
2022/06/07 10:36:31;;;;;;;2.70;1.50;;;23.20;57.50;;;;;;5096765;28;20468;-51
2022/06/07 10:39:40;;;;;;;2.60;1.63;;;23.30;57.30;;;;;;5095636;28;20431;-50
2022/06/07 10:42:15;;;;;;;2.50;1.60;;;23.60;57.80;;;;;;5075498;28;20850;-49
2022/06/07 10:44:51;;;;;;;3.07;1.50;;;23.80;56.80;;;;;;5075488;28;20966;-51
2022/06/07 10:47:50;;;;;;;1.97;1.70;;;23.60;56.50;;;;;;5077162;28;20708;-51
2022/06/07 10:50:16;;;;;;;6.87;2.50;;;23.30;56.80;;;;;;5039184;28;20466;-48
2022/06/07 10:52:48;;;;;;;3.80;1.83;;;23.20;59.10;;;;;;5074407;28;20472;-51
2022/06/07 10:55:25;;;;;;;2.10;1.50;;;23.00;59.50;;;;;;5073622;28;20443;-49
2022/06/07 10:58:07;;;;;;;2.10;1.43;;;22.80;58.80;;;;;;5073399;28;20443;-51
2022/06/07 11:00:45;;;;;;;2.40;1.73;;;22.70;59.30;;;;;;5061462;28;20713;-49
2022/06/07 11:03:14;;;;;;;3.30;1.80;;;22.90;60.00;;;;;;5085740;28;20420;-48
2022/06/07 11:11:22;;;;;;;1.50;1.40;;;23.40;58.80;;;;;;5095893;28;20904;-49
2022/06/07 11:14:29;;;;;;;1.90;1.67;;;23.30;58.70;;;;;;5093543;28;20421;-52
2022/06/07 11:17:02;;;;;;;3.07;1.63;;;23.00;59.20;;;;;;5083481;28;21033;-49
2022/06/07 11:19:28;;;;;;;2.07;1.40;;;22.80;59.30;;;;;;5085054;28;20461;-49
2022/06/07 11:21:56;;;;;;;2.13;1.47;;;22.70;59.80;;;;;;5086051;28;20744;-49
2022/06/07 11:24:28;;;;;;;1.70;1.30;;;22.60;59.30;;;;;;5096837;28;20290;-48
2022/06/07 11:26:58;;;;;;;2.10;1.90;;;22.60;59.40;;;;;;5097586;28;20706;-48
2022/06/07 11:29:32;;;;;;;1.60;1.17;;;22.50;59.10;;;;;;5096580;28;20534;-48
2022/06/07 11:32:00;;;;;;;1.70;1.60;;;22.30;58.90;;;;;;5094266;28;20870;-47
2022/06/07 11:34:29;;;;;;;1.80;1.30;;;22.20;59.60;;;;;;5097284;28;20849;-48
2022/06/07 11:37:13;;;;;;;1.70;1.40;;;22.20;60.80;;;;;;5096419;28;20457;-48
2022/06/07 11:39:39;;;;;;;1.77;1.53;;;22.40;59.60;;;;;;5094906;28;20416;-49
2022/06/07 11:42:13;;;;;;;1.80;1.30;;;22.40;59.10;;;;;;5095685;28;20852;-52
2022/06/07 11:44:42;;;;;;;2.00;1.40;;;22.40;60.10;;;;;;5096697;28;20184;-51
2022/06/07 11:47:07;;;;;;;1.57;1.20;;;22.40;59.20;;;;;;5096007;28;20425;-49
2022/06/07 11:49:54;;;;;;;2.40;1.57;;;22.50;59.10;;;;;;5096349;28;20410;-49
2022/06/07 11:52:22;;;;;;;1.50;1.00;;;22.70;59.30;;;;;;5094272;28;20172;-48
2022/06/07 11:55:12;;;;;;;2.53;1.40;;;22.90;59.00;;;;;;5093337;28;20468;-47
2022/06/07 11:58:04;;;;;;;1.20;1.00;;;23.20;58.20;;;;;;5094609;28;20490;-50
2022/06/07 12:00:29;;;;;;;1.77;1.30;;;23.40;57.40;;;;;;5095219;28;20437;-48
2022/06/07 12:03:01;;;;;;;1.20;0.87;;;23.40;57.10;;;;;;5095650;28;20728;-48
2022/06/07 12:05:43;;;;;;;1.67;1.10;;;23.70;57.70;;;;;;5090554;28;20177;-48
2022/06/07 12:08:30;;;;;;;1.37;1.13;;;24.30;57.30;;;;;;5084477;28;20975;-50
2022/06/07 12:10:59;;;;;;;1.80;1.27;;;24.90;56.80;;;;;;5095610;28;20514;-50
2022/06/07 12:16:34;;;;;;;3.83;1.00;;;25.80;53.80;;;;;;5095383;28;20475;-48
2022/06/07 12:19:02;;;;;;;3.00;1.00;;;26.00;52.60;;;;;;5095872;28;20423;-48
2022/06/07 12:21:33;;;;;;;1.70;0.90;;;26.00;52.70;;;;;;5094217;28;20812;-49
2022/06/07 12:24:09;;;;;;;1.20;0.90;;;25.80;52.30;;;;;;5093745;28;20709;-49
2022/06/07 12:26:35;;;;;;;1.43;1.00;;;25.50;51.70;;;;;;5092968;28;20422;-49
2022/06/07 12:29:23;;;;;;;1.40;1.10;;;25.30;52.40;;;;;;5094755;28;20487;-49
2022/06/07 12:31:57;;;;;;;1.20;1.00;;;25.50;52.80;;;;;;5094374;28;20184;-51
2022/06/07 12:34:27;;;;;;;1.30;0.80;;;25.60;52.70;;;;;;5095787;28;20461;-49
2022/06/07 12:37:09;;;;;;;1.23;0.90;;;25.70;52.60;;;;;;5096116;28;20421;-48
2022/06/07 12:39:59;;;;;;;1.20;1.00;;;25.80;52.30;;;;;;5093607;28;20839;-49
2022/06/07 12:42:28;;;;;;;1.77;0.80;;;26.10;51.90;;;;;;5091983;28;20558;-50
2022/06/07 12:44:56;;;;;;;2.10;1.17;;;26.10;51.70;;;;;;5092089;28;20418;-49
2022/06/07 12:47:31;;;;;;;1.10;1.00;;;26.20;52.20;;;;;;5093396;28;20508;-48
2022/06/07 12:49:57;;;;;;;1.40;1.20;;;26.50;51.50;;;;;;5093830;28;20439;-50
2022/06/07 12:52:29;;;;;;;1.37;1.27;;;26.70;51.70;;;;;;5094955;28;20939;-50
2022/06/07 12:55:08;;;;;;;1.43;1.13;;;26.90;50.90;;;;;;5095978;28;20563;-48
2022/06/07 12:57:45;;;;;;;1.20;1.00;;;26.90;51.10;;;;;;5095442;28;20433;-49
2022/06/07 13:00:23;;;;;;;4.13;1.10;;;26.90;50.60;;;;;;5092095;28;20481;-51
2022/06/07 13:03:00;;;;;;;1.60;0.90;;;26.70;50.90;;;;;;5094098;28;20843;-49
2022/06/07 13:05:35;;;;;;;1.40;0.80;;;26.70;50.90;;;;;;5127534;27;20421;-49
2022/06/07 13:08:03;;;;;;;2.80;1.10;;;26.80;50.10;;;;;;5093937;28;20424;-49
2022/06/07 13:10:32;;;;;;;3.07;0.90;;;26.90;50.10;;;;;;5094285;28;20701;-49
2022/06/07 13:12:59;;;;;;;1.70;1.03;;;27.50;50.90;;;;;;5094456;28;20494;-48
2022/06/07 13:15:27;;;;;;;1.40;0.93;;;28.30;48.80;;;;;;5093796;28;20459;-49
2022/06/07 13:17:55;;;;;;;2.33;1.17;;;28.70;47.80;;;;;;5093767;28;20426;-50
2022/06/07 13:20:40;;;;;;;1.40;1.13;;;29.10;47.30;;;;;;5094101;28;20472;-48
2022/06/07 13:23:28;;;;;;;2.23;1.00;;;29.20;47.90;;;;;;5093106;28;20768;-49
2022/06/07 13:26:26;;;;;;;1.57;1.00;;;29.20;47.40;;;;;;5109018;28;20439;-51
2022/06/07 13:29:10;;;;;;;1.40;0.97;;;28.90;46.50;;;;;;5085469;28;20525;-49